Time;durP1;ratioP1;P1;durP2;ratioP2;P2;SDS_P1;SDS_P2;PMS_P1;PMS_P2;Temp;Humidity;BMP_temperature;BMP_pressure;BME280_temperature;BME280_humidity;BME280_pressure;Samples;Min_cycle;Max_cycle;Signal;HPM_P1;HPM_P2
2022/05/22 00:01:30;;;;;;;6.70;4.00;;;;;;;;;;5052737;28;20959;-62
2022/05/22 00:03:57;;;;;;;9.20;4.50;;;;;;;;;;5053052;28;20444;-61
2022/05/22 00:06:26;;;;;;;9.07;5.47;;;;;;;;;;5053116;28;20447;-61
2022/05/22 00:08:53;;;;;;;10.50;4.63;;;;;;;;;;5052797;28;20475;-62
2022/05/22 00:11:22;;;;;;;7.23;4.30;;;;;;;;;;5052577;28;20455;-60
2022/05/22 00:13:49;;;;;;;9.60;3.40;;;;;;;;;;5052577;28;20533;-62
2022/05/22 00:19:01;;;;;;;7.43;3.30;;;;;;;;;;5052812;28;20809;-61
2022/05/22 00:21:30;;;;;;;4.90;2.80;;;;;;;;;;5052932;28;20475;-61
2022/05/22 00:23:57;;;;;;;9.20;3.27;;;;;;;;;;5053033;28;20463;-61
2022/05/22 00:26:25;;;;;;;6.00;3.50;;;;;;;;;;5056677;28;20444;-59
2022/05/22 00:28:52;;;;;;;2.97;2.47;;;;;;;;;;5073949;22;20611;-64
2022/05/22 00:31:19;;;;;;;4.63;2.90;;;;;;;;;;5036764;28;20444;-63
2022/05/22 00:33:47;;;;;;;6.90;3.57;;;;;;;;;;5036638;28;20484;-64
2022/05/22 00:36:14;;;;;;;4.87;2.80;;;;;;;;;;5036905;28;20449;-63
2022/05/22 00:38:43;;;;;;;10.23;3.17;;;;;;;;;;5036859;28;20464;-63
2022/05/22 00:41:11;;;;;;;4.73;3.27;;;;;;;;;;5036765;28;20548;-63
2022/05/22 00:43:39;;;;;;;5.70;3.47;;;;;;;;;;5037501;28;20447;-63
2022/05/22 00:46:07;;;;;;;9.13;3.53;;;;;;;;;;5036799;28;20471;-63
2022/05/22 00:48:35;;;;;;;12.87;4.43;;;;;;;;;;5036512;28;20827;-63
2022/05/22 00:51:04;;;;;;;9.83;5.00;;;;;;;;;;5036436;28;20460;-63
2022/05/22 00:53:32;;;;;;;8.83;4.30;;;;;;;;;;5036452;28;20445;-62
2022/05/22 00:56:01;;;;;;;10.80;5.07;;;;;;;;;;5036419;28;20540;-63
2022/05/22 00:58:30;;;;;;;5.97;4.60;;;;;;;;;;5036239;28;20461;-63
2022/05/22 01:00:58;;;;;;;8.30;4.33;;;;;;;;;;5036244;28;20948;-63
2022/05/22 01:03:28;;;;;;;11.17;5.13;;;;;;;;;;5036181;28;20441;-63
2022/05/22 01:05:55;;;;;;;12.53;4.27;;;;;;;;;;5036239;28;20444;-63
2022/05/22 01:08:23;;;;;;;9.77;5.07;;;;;;;;;;5036269;28;20484;-63
2022/05/22 01:10:51;;;;;;;10.27;4.70;;;;;;;;;;5035880;28;20440;-63
2022/05/22 01:13:23;;;;;;;9.43;4.37;;;;;;;;;;5036198;28;20814;-63
2022/05/22 01:15:50;;;;;;;10.73;4.70;;;;;;;;;;5035932;28;20467;-63
2022/05/22 01:18:18;;;;;;;6.90;3.90;;;;;;;;;;5036095;28;20452;-63
2022/05/22 01:20:47;;;;;;;8.13;3.90;;;;;;;;;;5036052;28;20445;-63
2022/05/22 01:23:16;;;;;;;6.30;3.50;;;;;;;;;;5035633;28;20440;-63
2022/05/22 01:25:44;;;;;;;8.30;4.27;;;;;;;;;;5035912;28;20441;-63
2022/05/22 01:28:11;;;;;;;5.10;3.83;;;;;;;;;;5035455;28;20459;-63
2022/05/22 01:30:39;;;;;;;6.13;4.17;;;;;;;;;;5036021;28;20437;-63
2022/05/22 01:33:06;;;;;;;10.00;3.87;;;;;;;;;;5036178;28;20449;-63
2022/05/22 01:35:35;;;;;;;6.80;3.67;;;;;;;;;;5036577;28;20484;-63
2022/05/22 01:38:03;;;;;;;6.60;4.23;;;;;;;;;;5035020;28;20449;-63
2022/05/22 01:40:33;;;;;;;6.77;3.97;;;;;;;;;;5035720;28;20441;-63
2022/05/22 01:43:01;;;;;;;7.90;3.70;;;;;;;;;;5035392;28;20437;-63
2022/05/22 01:45:29;;;;;;;7.07;3.50;;;;;;;;;;5035540;28;20468;-63
2022/05/22 01:47:56;;;;;;;5.10;3.60;;;;;;;;;;5035535;28;20451;-63
2022/05/22 01:50:24;;;;;;;9.57;3.80;;;;;;;;;;5035499;28;20464;-63
2022/05/22 01:52:51;;;;;;;6.80;3.70;;;;;;;;;;5036154;28;20472;-63
2022/05/22 01:55:19;;;;;;;7.80;3.43;;;;;;;;;;5035549;28;20484;-63
2022/05/22 01:57:48;;;;;;;6.07;3.60;;;;;;;;;;5034908;28;20444;-63
2022/05/22 02:00:17;;;;;;;8.43;4.00;;;;;;;;;;5034951;28;20472;-63
2022/05/22 02:02:44;;;;;;;7.00;3.53;;;;;;;;;;5035041;28;20448;-63
2022/05/22 02:05:12;;;;;;;6.87;3.80;;;;;;;;;;5035204;28;20441;-63
2022/05/22 02:10:24;;;;;;;3.90;3.50;;;;;;;;;;5036076;28;20908;-63
2022/05/22 02:12:53;;;;;;;11.17;4.03;;;;;;;;;;5044711;28;20445;-63
2022/05/22 02:15:21;;;;;;;4.87;4.10;;;;;;;;;;5046099;28;20491;-64
2022/05/22 02:17:48;;;;;;;5.23;3.73;;;;;;;;;;5046137;28;20444;-63
2022/05/22 02:20:16;;;;;;;8.60;4.20;;;;;;;;;;5049115;28;20464;-64
2022/05/22 02:22:44;;;;;;;9.83;4.47;;;;;;;;;;5048947;28;20524;-63
2022/05/22 02:25:11;;;;;;;7.17;4.17;;;;;;;;;;5048402;28;20448;-64
2022/05/22 02:27:39;;;;;;;5.27;3.83;;;;;;;;;;5045124;28;20444;-63
2022/05/22 02:30:09;;;;;;;7.63;4.57;;;;;;;;;;5044816;28;20477;-63
2022/05/22 02:32:38;;;;;;;6.93;3.57;;;;;;;;;;5044083;28;20437;-63
2022/05/22 02:35:06;;;;;;;8.43;3.90;;;;;;;;;;5041949;28;20489;-63
2022/05/22 02:37:33;;;;;;;8.03;4.30;;;;;;;;;;5041826;28;20440;-63
2022/05/22 02:40:01;;;;;;;7.80;3.83;;;;;;;;;;5038136;28;20469;-63
2022/05/22 02:42:28;;;;;;;7.43;3.80;;;;;;;;;;5038336;28;20483;-63
2022/05/22 02:44:55;;;;;;;11.37;4.40;;;;;;;;;;5035677;28;20436;-63
2022/05/22 02:47:24;;;;;;;8.50;4.03;;;;;;;;;;5036720;28;20441;-63
2022/05/22 02:49:51;;;;;;;8.93;4.00;;;;;;;;;;5037986;28;20591;-63
2022/05/22 02:52:18;;;;;;;9.90;4.70;;;;;;;;;;5039905;28;20452;-63
2022/05/22 02:54:46;;;;;;;5.50;3.87;;;;;;;;;;5034531;28;20476;-63
2022/05/22 02:57:16;;;;;;;4.50;3.37;;;;;;;;;;5034097;28;20502;-63
2022/05/22 02:59:44;;;;;;;7.20;4.00;;;;;;;;;;5034192;28;20884;-63
2022/05/22 03:02:11;;;;;;;6.00;3.77;;;;;;;;;;5034264;28;20444;-63
2022/05/22 03:04:40;;;;;;;7.57;3.30;;;;;;;;;;5033986;28;20441;-63
2022/05/22 03:07:08;;;;;;;7.00;3.70;;;;;;;;;;5034152;28;20445;-63
2022/05/22 03:09:37;;;;;;;3.80;3.50;;;;;;;;;;5033715;28;20469;-63
2022/05/22 03:12:06;;;;;;;7.97;3.93;;;;;;;;;;5033927;28;20978;-63
2022/05/22 03:14:34;;;;;;;9.57;4.30;;;;;;;;;;5033511;28;20980;-63
2022/05/22 03:17:01;;;;;;;6.23;3.60;;;;;;;;;;5034069;28;20448;-63
2022/05/22 03:19:28;;;;;;;7.43;3.33;;;;;;;;;;5033813;28;20472;-63
2022/05/22 03:21:57;;;;;;;10.50;3.80;;;;;;;;;;5033808;28;20445;-63
2022/05/22 03:24:24;;;;;;;8.00;3.50;;;;;;;;;;5033381;28;20455;-63
2022/05/22 03:26:52;;;;;;;5.90;3.90;;;;;;;;;;5033559;28;20967;-63
2022/05/22 03:29:19;;;;;;;9.50;4.33;;;;;;;;;;5033337;28;20484;-63
2022/05/22 03:31:46;;;;;;;8.37;3.40;;;;;;;;;;5033231;28;20460;-63
2022/05/22 03:34:14;;;;;;;7.13;3.78;;;;;;;;;;5033831;28;20448;-63
2022/05/22 03:36:41;;;;;;;6.47;3.50;;;;;;;;;;5033331;28;20222;-63
2022/05/22 03:39:10;;;;;;;5.70;3.27;;;;;;;;;;5034588;28;20469;-63
2022/05/22 03:41:37;;;;;;;5.83;3.67;;;;;;;;;;5034584;28;20525;-63
2022/05/22 03:44:06;;;;;;;5.83;3.20;;;;;;;;;;5033311;28;20480;-63
2022/05/22 03:46:33;;;;;;;5.53;3.20;;;;;;;;;;5033279;28;20532;-63
2022/05/22 03:49:00;;;;;;;6.57;3.20;;;;;;;;;;5033242;28;20464;-63
2022/05/22 03:51:28;;;;;;;4.93;3.00;;;;;;;;;;5034985;28;20444;-62
2022/05/22 03:53:55;;;;;;;3.37;3.07;;;;;;;;;;5035145;28;20540;-63
2022/05/22 03:56:24;;;;;;;7.20;3.63;;;;;;;;;;5036765;28;20484;-63
2022/05/22 03:58:51;;;;;;;7.17;3.50;;;;;;;;;;5039007;28;20460;-63
2022/05/22 04:01:18;;;;;;;11.17;4.43;;;;;;;;;;5036224;28;20448;-63
2022/05/22 04:03:46;;;;;;;9.30;3.50;;;;;;;;;;5036219;28;20864;-63
2022/05/22 04:09:48;;;;;;;7.33;3.37;;;11.80;99.90;;;;;;5094124;27;20622;-63
2022/05/22 04:12:15;;;;;;;7.97;3.40;;;12.20;99.90;;;;;;5094535;28;20438;-63
2022/05/22 04:14:42;;;;;;;4.73;2.83;;;12.70;99.90;;;;;;5094134;28;20449;-63
2022/05/22 04:17:10;;;;;;;5.30;3.43;;;13.10;99.90;;;;;;5092851;28;20815;-64
2022/05/22 04:19:38;;;;;;;9.63;3.40;;;13.50;99.90;;;;;;5092573;28;20993;-63
2022/05/22 04:22:06;;;;;;;6.27;2.70;;;13.90;99.90;;;;;;5093431;28;20447;-63
2022/05/22 04:27:19;;;;;;;6.40;2.80;;;14.40;99.80;;;;;;5090779;28;20436;-63
2022/05/22 04:29:46;;;;;;;5.47;2.70;;;14.60;98.80;;;;;;5090714;28;20898;-63
2022/05/22 04:32:13;;;;;;;5.40;3.00;;;14.70;98.00;;;;;;5090799;28;20442;-63
2022/05/22 04:34:40;;;;;;;5.07;2.63;;;14.80;97.30;;;;;;5090645;28;20446;-64
2022/05/22 04:37:07;;;;;;;4.70;2.70;;;14.90;96.70;;;;;;5090650;28;20446;-63
2022/05/22 04:39:34;;;;;;;4.70;2.03;;;14.90;96.00;;;;;;5090770;28;20465;-64
2022/05/22 04:42:01;;;;;;;5.20;2.40;;;15.00;95.70;;;;;;5096019;28;20446;-64
2022/05/22 04:44:30;;;;;;;6.73;2.70;;;15.20;95.10;;;;;;5096452;28;20446;-63
2022/05/22 04:46:59;;;;;;;6.93;2.50;;;15.30;94.40;;;;;;5092780;28;20458;-63
2022/05/22 04:49:26;;;;;;;6.30;2.40;;;15.50;93.30;;;;;;5089993;28;20489;-64
2022/05/22 04:51:54;;;;;;;4.13;2.20;;;15.70;92.70;;;;;;5074485;28;20462;-63
2022/05/22 04:54:21;;;;;;;4.47;2.47;;;16.00;92.20;;;;;;5069867;28;20462;-64
2022/05/22 04:56:48;;;;;;;6.70;2.40;;;16.10;91.00;;;;;;5069972;28;20451;-63
2022/05/22 04:59:15;;;;;;;5.87;2.40;;;16.10;90.00;;;;;;5069683;28;20505;-65
2022/05/22 05:01:44;;;;;;;4.87;2.77;;;16.00;89.50;;;;;;5069902;28;20450;-62
2022/05/22 05:04:11;;;;;;;6.67;2.43;;;15.80;90.00;;;;;;5069302;28;20534;-64
2022/05/22 05:06:38;;;;;;;5.83;2.60;;;15.70;90.00;;;;;;5069464;28;20497;-63
2022/05/22 05:09:06;;;;;;;3.83;2.63;;;15.60;90.00;;;;;;5068881;28;20483;-63
2022/05/22 05:11:33;;;;;;;4.93;3.30;;;15.60;90.00;;;;;;5069393;28;20443;-63
2022/05/22 05:14:00;;;;;;;11.97;3.13;;;15.50;90.00;;;;;;5069334;28;20444;-64
2022/05/22 05:16:27;;;;;;;5.67;2.60;;;15.60;90.30;;;;;;5069219;28;20931;-64
2022/05/22 05:18:55;;;;;;;5.33;2.37;;;15.80;90.10;;;;;;5068175;28;20455;-63
2022/05/22 05:21:22;;;;;;;4.67;2.50;;;16.10;88.40;;;;;;5055469;28;20858;-63
2022/05/22 05:23:50;;;;;;;3.70;2.60;;;16.20;87.10;;;;;;5055892;28;20444;-64
2022/05/22 05:26:17;;;;;;;5.80;3.27;;;16.20;86.50;;;;;;5055791;28;20866;-63
2022/05/22 05:28:44;;;;;;;7.37;2.90;;;16.20;86.20;;;;;;5055786;28;20483;-62
2022/05/22 05:31:11;;;;;;;8.87;2.73;;;16.00;86.60;;;;;;5055667;28;20455;-62
2022/05/22 05:33:38;;;;;;;6.50;2.87;;;15.80;87.50;;;;;;5055464;28;20444;-63
2022/05/22 05:36:09;;;;;;;8.60;3.27;;;15.60;88.80;;;;;;5055562;28;20444;-62
2022/05/22 05:38:36;;;;;;;9.93;3.20;;;15.40;90.10;;;;;;5055846;28;20499;-64
2022/05/22 05:41:03;;;;;;;6.47;3.03;;;15.30;90.50;;;;;;5055194;28;20447;-63
2022/05/22 05:43:31;;;;;;;6.07;3.30;;;15.20;90.70;;;;;;5062721;28;20444;-63
2022/05/22 05:45:58;;;;;;;4.27;2.90;;;15.00;91.30;;;;;;5059240;28;20456;-64
2022/05/22 05:48:25;;;;;;;5.83;3.07;;;14.90;91.70;;;;;;5055816;28;20483;-63
2022/05/22 05:50:52;;;;;;;8.03;3.80;;;14.90;92.10;;;;;;5055425;28;20943;-63
2022/05/22 05:53:20;;;;;;;7.20;3.50;;;14.80;92.10;;;;;;5055259;28;20785;-65
2022/05/22 05:55:48;;;;;;;5.53;3.83;;;14.80;92.20;;;;;;5055671;28;20456;-63
2022/05/22 05:58:15;;;;;;;6.97;3.30;;;14.90;92.20;;;;;;5054803;28;20920;-64
2022/05/22 06:00:42;;;;;;;7.90;3.53;;;14.90;92.30;;;;;;5055021;28;20939;-63
2022/05/22 06:03:09;;;;;;;9.07;3.90;;;14.90;92.10;;;;;;5055347;28;20448;-63
2022/05/22 06:05:36;;;;;;;7.80;3.57;;;15.00;92.00;;;;;;5055181;28;20566;-63
2022/05/22 06:08:04;;;;;;;8.50;3.90;;;15.00;92.00;;;;;;5054697;28;20452;-62
2022/05/22 06:10:32;;;;;;;7.80;4.53;;;15.00;91.80;;;;;;5054718;28;20459;-64
2022/05/22 06:12:59;;;;;;;6.10;3.70;;;15.10;91.80;;;;;;5054982;28;20455;-63
2022/05/22 06:15:26;;;;;;;11.17;3.33;;;15.10;91.60;;;;;;5055145;28;20448;-63
2022/05/22 06:17:56;;;;;;;7.57;4.27;;;15.00;91.40;;;;;;5060971;28;20459;-64
2022/05/22 06:20:23;;;;;;;7.67;3.33;;;15.00;91.40;;;;;;5060261;28;20472;-63
2022/05/22 06:22:50;;;;;;;9.60;3.53;;;15.00;91.50;;;;;;5060087;28;20446;-63
2022/05/22 06:25:18;;;;;;;10.13;3.23;;;14.90;91.30;;;;;;5061698;28;20455;-63
2022/05/22 06:27:46;;;;;;;6.40;2.90;;;14.80;91.60;;;;;;5060295;28;20455;-64
2022/05/22 06:30:15;;;;;;;5.83;4.30;;;14.70;92.00;;;;;;5054723;28;20484;-64
2022/05/22 06:32:43;;;;;;;8.97;3.73;;;14.70;92.00;;;;;;5073888;22;20897;-61
2022/05/22 06:35:11;;;;;;;4.97;3.03;;;14.70;91.80;;;;;;5034803;28;20945;-61
2022/05/22 06:37:39;;;;;;;4.40;3.67;;;14.70;91.80;;;;;;5034624;28;20441;-61
2022/05/22 06:40:06;;;;;;;9.97;3.97;;;14.80;91.70;;;;;;5034193;28;20993;-63
2022/05/22 06:42:37;;;;;;;8.57;3.67;;;14.90;91.50;;;;;;5034450;28;20436;-63
2022/05/22 06:45:09;;;;;;;8.53;3.43;;;14.80;91.50;;;;;;5033882;28;20441;-63
2022/05/22 06:47:37;;;;;;;9.17;3.30;;;14.70;91.50;;;;;;5034293;28;20440;-60
2022/05/22 06:50:09;;;;;;;9.97;4.07;;;14.70;91.70;;;;;;5034175;28;20493;-58
2022/05/22 06:52:36;;;;;;;8.40;3.87;;;14.60;91.80;;;;;;5034145;28;20893;-58
2022/05/22 06:55:04;;;;;;;9.03;4.57;;;14.60;91.80;;;;;;5034484;28;20440;-61
2022/05/22 06:57:32;;;;;;;7.00;4.37;;;14.60;91.90;;;;;;5033631;28;20452;-61
2022/05/22 07:00:00;;;;;;;7.50;3.83;;;14.80;91.80;;;;;;5033897;28;20448;-60
2022/05/22 07:02:29;;;;;;;8.60;3.80;;;15.00;91.50;;;;;;5033888;28;20453;-61
2022/05/22 07:04:59;;;;;;;7.63;5.00;;;15.20;90.80;;;;;;5033560;28;20955;-63
2022/05/22 07:07:26;;;;;;;13.60;4.53;;;15.40;90.30;;;;;;5034284;28;20444;-61
2022/05/22 07:09:54;;;;;;;7.83;4.27;;;15.40;90.20;;;;;;5034249;28;20480;-61
2022/05/22 07:12:22;;;;;;;10.40;3.97;;;15.40;90.20;;;;;;5033968;28;20976;-62
2022/05/22 07:14:49;;;;;;;6.47;3.13;;;15.50;89.60;;;;;;5034117;28;20452;-59
2022/05/22 07:17:21;;;;;;;7.93;3.10;;;15.50;89.50;;;;;;5034203;28;20540;-59
2022/05/22 07:19:50;;;;;;;7.13;2.90;;;15.50;88.00;;;;;;5033919;28;20456;-58
2022/05/22 07:22:17;;;;;;;3.73;2.80;;;15.40;87.40;;;;;;5033904;28;20448;-59
2022/05/22 07:24:44;;;;;;;5.30;3.07;;;15.40;87.10;;;;;;5033361;28;20468;-60
2022/05/22 07:27:11;;;;;;;8.00;3.37;;;15.40;86.20;;;;;;5033945;28;20481;-60
2022/05/22 07:29:38;;;;;;;7.40;3.67;;;15.50;85.50;;;;;;5033511;28;20500;-60
2022/05/22 07:32:06;;;;;;;6.97;2.97;;;15.60;84.80;;;;;;5033453;28;20532;-59
2022/05/22 07:34:34;;;;;;;6.60;2.43;;;15.70;83.50;;;;;;5033302;28;20504;-62
2022/05/22 07:37:04;;;;;;;5.63;2.67;;;16.00;81.80;;;;;;5033231;28;20493;-60
2022/05/22 07:39:32;;;;;;;9.40;2.83;;;16.20;80.30;;;;;;5033461;28;20440;-59
2022/05/22 07:41:59;;;;;;;8.10;2.93;;;16.40;78.80;;;;;;5032785;28;20452;-61
2022/05/22 07:44:26;;;;;;;8.03;3.43;;;16.50;77.40;;;;;;5032629;28;20471;-61
2022/05/22 07:46:53;;;;;;;7.97;2.50;;;16.40;76.00;;;;;;5032967;28;20955;-61
2022/05/22 07:52:09;;;;;;;5.50;2.40;;;16.10;75.50;;;;;;5032972;28;20416;-61
2022/05/22 07:54:37;;;;;;;5.53;2.07;;;15.80;75.80;;;;;;5033141;28;20472;-61
2022/05/22 07:57:05;;;;;;;9.07;2.77;;;15.70;76.50;;;;;;5033014;28;20499;-60
2022/05/22 07:59:35;;;;;;;6.07;2.20;;;15.60;76.70;;;;;;5033235;28;20443;-60
2022/05/22 08:02:03;;;;;;;5.10;2.33;;;15.60;76.80;;;;;;5033521;28;20449;-58
2022/05/22 08:04:30;;;;;;;6.37;1.67;;;15.80;76.20;;;;;;5032932;28;20504;-61
2022/05/22 08:06:58;;;;;;;3.13;1.63;;;16.20;74.00;;;;;;5032718;28;20851;-60
2022/05/22 08:09:26;;;;;;;3.40;1.70;;;16.40;70.80;;;;;;5032790;28;21019;-61
2022/05/22 08:11:53;;;;;;;4.57;1.77;;;16.60;68.20;;;;;;5032814;28;20908;-60
2022/05/22 08:14:21;;;;;;;5.30;1.93;;;16.70;67.70;;;;;;5032796;28;20495;-61
2022/05/22 08:16:48;;;;;;;4.50;2.10;;;16.90;66.50;;;;;;5032563;28;20449;-59
2022/05/22 08:19:15;;;;;;;3.53;1.40;;;17.10;64.60;;;;;;5032930;28;20445;-59
2022/05/22 08:21:42;;;;;;;4.43;1.30;;;17.00;62.60;;;;;;5033387;28;20457;-59
2022/05/22 08:24:09;;;;;;;3.37;1.20;;;16.80;61.90;;;;;;5032884;28;20472;-60
2022/05/22 08:26:38;;;;;;;4.23;1.67;;;16.70;61.80;;;;;;5032722;28;20460;-58
2022/05/22 08:29:06;;;;;;;4.87;1.90;;;16.80;61.20;;;;;;5032783;28;20611;-61
2022/05/22 08:31:33;;;;;;;4.07;1.67;;;16.90;60.50;;;;;;5032864;28;20448;-60
2022/05/22 08:34:00;;;;;;;2.60;1.50;;;17.10;60.00;;;;;;5032421;28;20480;-59
2022/05/22 08:36:27;;;;;;;4.63;1.77;;;17.30;59.30;;;;;;5032973;28;20452;-60
2022/05/22 08:38:54;;;;;;;3.77;2.00;;;17.50;58.60;;;;;;5032670;28;20452;-59
2022/05/22 08:41:27;;;;;;;6.17;1.60;;;17.80;57.30;;;;;;5032527;28;20936;-60
2022/05/22 08:44:02;;;;;;;4.83;1.63;;;17.90;56.50;;;;;;5032784;28;20468;-61
2022/05/22 08:46:35;;;;;;;5.93;2.13;;;18.10;56.00;;;;;;5032702;28;20429;-61
2022/05/22 08:49:07;;;;;;;5.07;1.30;;;18.30;55.10;;;;;;5032410;28;20905;-61
2022/05/22 08:51:41;;;;;;;6.13;2.10;;;18.60;54.70;;;;;;5033032;28;20433;-60
2022/05/22 08:54:14;;;;;;;3.13;1.30;;;18.80;54.20;;;;;;5032722;28;20461;-60
2022/05/22 08:59:32;;;;;;;4.27;1.80;;;18.70;53.70;;;;;;5036169;28;20408;-59
2022/05/22 09:02:10;;;;;;;4.00;2.17;;;18.60;53.90;;;;;;5036311;28;20433;-61
2022/05/22 09:04:41;;;;;;;3.77;1.60;;;18.30;54.20;;;;;;5036027;28;20837;-59
2022/05/22 09:07:20;;;;;;;2.70;1.57;;;18.00;54.80;;;;;;5035913;28;20439;-61
2022/05/22 09:09:53;;;;;;;4.20;1.80;;;17.80;55.30;;;;;;5036109;28;20473;-61
2022/05/22 09:13:03;;;;;;;4.47;1.83;;;17.60;55.50;;;;;;5036802;28;20456;-61
2022/05/22 09:15:42;;;;;;;2.87;1.67;;;17.30;55.60;;;;;;5000669;28;20499;-62
2022/05/22 09:18:18;;;;;;;5.03;1.80;;;17.10;56.10;;;;;;5035992;28;20523;-59
2022/05/22 09:20:53;;;;;;;5.10;1.80;;;17.00;56.30;;;;;;5035668;28;20433;-59
2022/05/22 09:23:36;;;;;;;3.00;1.20;;;17.00;55.80;;;;;;5035472;28;20536;-59
2022/05/22 09:26:09;;;;;;;3.60;1.40;;;17.10;54.80;;;;;;5035626;28;20437;-62
2022/05/22 09:28:47;;;;;;;4.27;1.83;;;17.30;53.90;;;;;;5035610;28;20439;-62
2022/05/22 09:31:23;;;;;;;3.40;2.10;;;17.50;53.40;;;;;;5035440;28;20979;-63
2022/05/22 09:34:02;;;;;;;4.20;2.30;;;17.70;52.90;;;;;;5035897;28;20522;-62
2022/05/22 09:36:40;;;;;;;3.60;1.50;;;17.90;52.30;;;;;;5035625;28;20429;-62
2022/05/22 09:39:20;;;;;;;3.63;1.83;;;18.00;52.10;;;;;;5034027;28;20978;-62
2022/05/22 09:42:01;;;;;;;3.13;1.87;;;18.00;51.90;;;;;;5035723;28;20437;-60
2022/05/22 09:44:54;;;;;;;4.70;1.50;;;18.00;51.80;;;;;;5035238;28;20992;-62
2022/05/22 09:47:42;;;;;;;4.33;2.10;;;18.10;51.90;;;;;;5035654;28;20441;-62
2022/05/22 09:50:21;;;;;;;5.53;1.60;;;18.20;51.90;;;;;;5035177;28;21011;-61
2022/05/22 09:52:57;;;;;;;3.63;1.80;;;18.30;51.70;;;;;;5034962;28;21042;-61
2022/05/22 09:55:29;;;;;;;2.07;1.73;;;18.40;51.40;;;;;;5034482;28;20468;-60
2022/05/22 09:58:25;;;;;;;3.07;1.60;;;18.40;51.10;;;;;;5035043;28;20425;-61
2022/05/22 10:00:58;;;;;;;2.33;1.90;;;18.40;50.80;;;;;;5035308;28;20421;-63
2022/05/22 10:03:38;;;;;;;2.80;2.00;;;18.40;50.70;;;;;;5035570;28;20475;-62
2022/05/22 10:06:13;;;;;;;3.70;1.93;;;18.40;50.70;;;;;;5015086;28;20738;-62
2022/05/22 10:09:02;;;;;;;2.50;1.80;;;18.50;50.50;;;;;;5015180;28;20441;-62
2022/05/22 10:11:37;;;;;;;3.00;1.60;;;18.60;50.30;;;;;;5015379;28;20461;-64
2022/05/22 10:14:23;;;;;;;3.17;1.63;;;18.90;50.20;;;;;;5014902;28;20875;-63
2022/05/22 10:17:04;;;;;;;1.93;1.60;;;18.90;49.80;;;;;;5015190;28;20445;-63
2022/05/22 10:19:40;;;;;;;3.57;1.73;;;19.00;49.00;;;;;;5014832;28;20430;-63
2022/05/22 10:22:16;;;;;;;4.10;1.80;;;19.00;48.00;;;;;;5015124;28;20449;-62
2022/05/22 10:25:01;;;;;;;2.43;1.20;;;19.00;47.60;;;;;;5014838;28;20478;-63
2022/05/22 10:27:48;;;;;;;3.00;1.63;;;19.00;47.60;;;;;;5014782;28;20438;-62
2022/05/22 10:30:19;;;;;;;3.50;1.70;;;19.10;47.60;;;;;;5014823;28;20481;-63
2022/05/22 10:32:52;;;;;;;4.13;1.70;;;19.20;47.90;;;;;;5014647;28;20818;-63
2022/05/22 10:35:26;;;;;;;2.40;1.80;;;19.30;47.90;;;;;;5014923;28;20774;-62
2022/05/22 10:37:59;;;;;;;2.70;1.60;;;19.20;48.10;;;;;;5014969;28;20426;-62
2022/05/22 10:42:44;;;;;;;2.03;1.47;;;19.10;48.20;;;;;;5014384;28;21049;-65
2022/05/22 10:43:13;;;;;;;2.20;1.30;;;19.10;47.40;;;;;;5014193;28;20474;-63
2022/05/22 10:45:40;;;;;;;3.50;1.20;;;19.10;46.40;;;;;;5015712;28;20496;-62
2022/05/22 10:48:10;;;;;;;3.23;1.63;;;19.10;46.00;;;;;;5014644;28;20855;-64
2022/05/22 10:50:50;;;;;;;3.80;1.20;;;19.10;45.50;;;;;;5014223;28;20497;-64
2022/05/22 10:53:26;;;;;;;2.60;1.30;;;19.20;45.00;;;;;;5014227;28;20470;-63
2022/05/22 10:56:01;;;;;;;3.13;1.43;;;19.30;44.50;;;;;;5014259;28;20454;-63
2022/05/22 10:58:30;;;;;;;3.47;1.70;;;19.40;44.60;;;;;;5014421;28;20433;-63
2022/05/22 11:01:00;;;;;;;1.90;1.10;;;19.40;44.50;;;;;;5015132;28;20942;-63
2022/05/22 11:03:29;;;;;;;3.67;1.77;;;19.50;44.50;;;;;;5014680;28;20540;-61
2022/05/22 11:06:00;;;;;;;2.50;1.30;;;19.60;44.70;;;;;;5014657;28;20957;-62
2022/05/22 11:08:31;;;;;;;3.03;1.50;;;19.80;45.40;;;;;;5014992;28;20473;-64
2022/05/22 11:11:11;;;;;;;2.40;1.33;;;20.00;44.70;;;;;;5014480;28;20973;-64
2022/05/22 11:13:39;;;;;;;4.30;1.63;;;20.30;44.40;;;;;;5014112;28;20498;-64
2022/05/22 11:16:13;;;;;;;3.60;1.53;;;20.40;44.00;;;;;;5014384;28;20461;-63
2022/05/22 11:18:40;;;;;;;2.77;1.27;;;20.40;43.90;;;;;;5013473;28;20448;-64
2022/05/22 11:21:26;;;;;;;3.80;1.80;;;20.40;43.80;;;;;;5013654;28;20524;-62
2022/05/22 11:24:09;;;;;;;2.43;1.23;;;20.50;43.80;;;;;;5013940;28;20472;-62
2022/05/22 11:26:52;;;;;;;2.90;1.47;;;20.50;42.90;;;;;;5013981;28;20434;-62
2022/05/22 11:29:33;;;;;;;2.87;1.10;;;20.40;42.80;;;;;;5013587;28;20429;-62
2022/05/22 11:32:10;;;;;;;4.77;1.60;;;20.40;42.80;;;;;;5013469;28;20556;-63
2022/05/22 11:35:09;;;;;;;2.40;1.50;;;20.40;42.90;;;;;;5013667;28;20560;-63
2022/05/22 11:37:50;;;;;;;1.87;1.17;;;20.50;43.10;;;;;;5011202;28;20457;-61
2022/05/22 11:40:33;;;;;;;3.30;1.70;;;20.60;43.10;;;;;;5013590;28;20434;-61
2022/05/22 11:43:18;;;;;;;3.50;1.50;;;20.80;43.10;;;;;;5013732;28;20513;-62
2022/05/22 11:45:53;;;;;;;5.73;1.70;;;20.90;42.70;;;;;;5013945;28;20468;-60
2022/05/22 11:48:54;;;;;;;2.90;1.40;;;21.00;42.70;;;;;;5013951;28;20548;-62
2022/05/22 11:51:51;;;;;;;2.47;1.50;;;21.60;42.90;;;;;;5009371;28;20488;-62
2022/05/22 11:54:43;;;;;;;4.10;1.20;;;22.40;41.30;;;;;;5011150;28;20469;-65
2022/05/22 11:57:27;;;;;;;2.40;1.60;;;23.00;39.70;;;;;;5003662;28;20453;-62
2022/05/22 12:00:08;;;;;;;2.53;1.40;;;23.20;38.60;;;;;;5013469;28;20437;-62
2022/05/22 12:02:51;;;;;;;3.67;1.30;;;23.20;38.80;;;;;;5013471;28;20918;-63
2022/05/22 12:05:39;;;;;;;5.00;1.37;;;23.40;38.60;;;;;;5013770;28;20455;-63
2022/05/22 12:08:31;;;;;;;3.40;1.47;;;23.50;38.60;;;;;;5013511;28;20477;-62
2022/05/22 12:11:05;;;;;;;3.83;1.47;;;23.60;38.20;;;;;;5010781;28;21025;-59
2022/05/22 12:13:39;;;;;;;3.87;1.40;;;23.70;37.60;;;;;;5013504;28;20465;-62
2022/05/22 12:16:09;;;;;;;2.80;1.03;;;23.60;36.70;;;;;;5013600;28;20442;-63
2022/05/22 12:19:01;;;;;;;2.93;1.40;;;23.60;36.50;;;;;;5013318;28;20445;-63
2022/05/22 12:21:35;;;;;;;2.63;1.20;;;23.70;36.10;;;;;;5013339;28;20418;-63
2022/05/22 12:24:08;;;;;;;2.03;1.10;;;24.00;36.00;;;;;;5012894;28;20469;-63
2022/05/22 12:26:38;;;;;;;4.30;1.37;;;24.30;35.70;;;;;;5013289;28;20425;-62
2022/05/22 12:29:10;;;;;;;1.90;1.17;;;24.40;35.30;;;;;;5013834;28;20561;-61
2022/05/22 12:31:42;;;;;;;3.53;1.63;;;24.50;35.40;;;;;;5017703;28;20466;-63
2022/05/22 12:34:13;;;;;;;2.30;1.20;;;24.30;35.60;;;;;;5051240;22;20996;-63
2022/05/22 12:36:45;;;;;;;4.90;1.93;;;23.70;36.00;;;;;;5036618;28;20502;-63
2022/05/22 12:39:14;;;;;;;4.87;1.70;;;23.20;36.80;;;;;;5036323;28;20939;-63
2022/05/22 12:41:53;;;;;;;1.90;1.33;;;22.70;37.40;;;;;;5036927;28;20449;-63
2022/05/22 12:44:20;;;;;;;2.17;1.47;;;22.50;37.80;;;;;;5037034;28;20480;-63
2022/05/22 12:46:49;;;;;;;2.83;1.50;;;22.40;38.50;;;;;;5036952;28;20452;-64
2022/05/22 12:49:23;;;;;;;3.67;1.30;;;22.40;37.90;;;;;;5036751;28;20601;-63
2022/05/22 12:52:02;;;;;;;2.33;1.20;;;22.40;38.10;;;;;;5037410;28;20460;-64
2022/05/22 12:54:31;;;;;;;2.77;1.23;;;22.60;37.90;;;;;;5036783;28;20472;-64
2022/05/22 12:57:17;;;;;;;4.57;1.40;;;22.70;37.90;;;;;;5036039;28;20453;-64
2022/05/22 12:59:56;;;;;;;2.73;1.30;;;22.90;38.00;;;;;;5036578;28;20424;-65
2022/05/22 13:02:42;;;;;;;3.70;1.53;;;22.90;38.10;;;;;;5036342;28;20441;-64
2022/05/22 13:05:20;;;;;;;2.87;1.17;;;22.70;38.00;;;;;;5036418;28;20500;-63
2022/05/22 13:07:47;;;;;;;1.97;1.17;;;22.50;37.90;;;;;;5036612;28;20429;-65
2022/05/22 13:10:23;;;;;;;1.43;1.10;;;22.30;38.10;;;;;;5036040;28;20945;-64
2022/05/22 13:13:00;;;;;;;4.00;1.70;;;22.40;38.20;;;;;;5036264;28;20428;-64
2022/05/22 13:15:30;;;;;;;3.47;1.50;;;22.30;38.10;;;;;;5036255;28;20429;-64
2022/05/22 13:18:14;;;;;;;2.53;1.23;;;22.20;38.20;;;;;;5035813;28;20437;-64
2022/05/22 13:20:48;;;;;;;4.67;1.50;;;22.20;38.50;;;;;;5035782;28;20429;-65
2022/05/22 13:23:34;;;;;;;4.10;1.53;;;22.30;38.50;;;;;;5036120;28;20479;-64
2022/05/22 13:26:04;;;;;;;2.90;1.37;;;22.50;38.30;;;;;;5035500;28;21029;-64
2022/05/22 13:28:35;;;;;;;3.20;1.53;;;22.60;38.10;;;;;;5036084;28;20448;-63
2022/05/22 13:31:15;;;;;;;2.10;1.20;;;22.60;37.70;;;;;;5035428;28;20980;-64
2022/05/22 13:33:44;;;;;;;3.00;1.40;;;22.70;37.70;;;;;;5036524;28;20984;-64
2022/05/22 13:36:18;;;;;;;3.03;1.60;;;22.50;37.70;;;;;;5038836;28;20449;-65
2022/05/22 13:38:45;;;;;;;3.07;1.47;;;22.40;37.90;;;;;;5035384;28;20433;-64
2022/05/22 13:41:43;;;;;;;4.03;1.30;;;22.30;38.10;;;;;;5035447;28;20445;-64
2022/05/22 13:44:48;;;;;;;2.90;1.20;;;22.20;38.10;;;;;;5035410;28;20980;-63
2022/05/22 13:47:53;;;;;;;3.30;1.40;;;22.20;38.30;;;;;;5035655;28;20432;-64
2022/05/22 13:53:48;;;;;;;3.73;1.60;;;22.40;38.50;;;;;;5035242;28;20568;-65
2022/05/22 13:56:16;;;;;;;2.80;1.60;;;22.30;38.70;;;;;;5035327;28;20448;-65
2022/05/22 13:58:46;;;;;;;3.40;1.20;;;22.30;38.70;;;;;;5035236;28;20800;-63
2022/05/22 14:01:17;;;;;;;2.57;1.40;;;22.20;38.30;;;;;;5035036;28;20425;-64